Time;durP1;ratioP1;P1;durP2;ratioP2;P2;SDS_P1;SDS_P2;PMS_P1;PMS_P2;Temp;Humidity;BMP_temperature;BMP_pressure;BME280_temperature;BME280_humidity;BME280_pressure;Samples;Min_cycle;Max_cycle;Signal;HPM_P1;HPM_P2
2023/10/30 00:01:25;;;;;;;4.38;2.30;;;;;;;;;;5049293;28;20541;-58
2023/10/30 00:03:52;;;;;;;5.43;2.45;;;;;;;;;;5048647;28;20052;-58
2023/10/30 00:06:18;;;;;;;3.20;2.10;;;;;;;;;;5047526;28;20049;-59
2023/10/30 00:08:44;;;;;;;5.00;2.05;;;;;;;;;;5040883;28;20068;-59
2023/10/30 00:11:10;;;;;;;5.10;1.90;;;;;;;;;;5034065;28;20024;-58
2023/10/30 00:13:36;;;;;;;4.68;2.60;;;;;;;;;;5036693;28;20042;-59
2023/10/30 00:16:02;;;;;;;3.25;2.00;;;;;;;;;;5036282;28;20045;-59
2023/10/30 00:18:28;;;;;;;5.13;2.53;;;;;;;;;;5035225;28;20056;-58
2023/10/30 00:20:55;;;;;;;26.52;7.72;;;;;;;;;;5047658;28;20053;-59
2023/10/30 00:23:21;;;;;;;9.18;4.07;;;;;;;;;;5039453;28;20033;-58
2023/10/30 00:25:47;;;;;;;5.68;3.67;;;;;;;;;;5041062;28;20034;-58
2023/10/30 00:28:13;;;;;;;5.57;3.45;;;;;;;;;;5045404;28;20040;-59
2023/10/30 00:30:39;;;;;;;4.88;3.40;;;;;;;;;;5045646;28;20036;-59
2023/10/30 00:33:05;;;;;;;6.82;3.58;;;;;;;;;;5042185;28;20045;-58
2023/10/30 00:35:31;;;;;;;10.13;3.55;;;;;;;;;;5045332;28;20036;-59
2023/10/30 00:37:57;;;;;;;11.32;4.93;;;;;;;;;;5043058;28;20052;-59
2023/10/30 00:40:24;;;;;;;9.45;4.82;;;;;;;;;;5045429;28;20041;-59
2023/10/30 00:42:50;;;;;;;11.98;4.85;;;;;;;;;;5044869;28;20334;-59
2023/10/30 00:45:17;;;;;;;6.75;4.07;;;;;;;;;;5047200;28;20060;-59
2023/10/30 00:47:43;;;;;;;7.68;4.55;;;;;;;;;;5043236;28;20029;-59
2023/10/30 00:50:09;;;;;;;7.68;4.15;;;;;;;;;;5039896;28;20052;-59
2023/10/30 00:52:35;;;;;;;9.95;4.88;;;;;;;;;;5048094;28;20041;-58
2023/10/30 00:55:01;;;;;;;7.60;4.03;;;;;;;;;;5039566;28;20060;-59
2023/10/30 00:57:28;;;;;;;7.75;4.45;;;;;;;;;;5046175;28;20064;-59
2023/10/30 00:59:54;;;;;;;9.00;4.65;;;;;;;;;;5046268;28;20310;-58
2023/10/30 01:02:20;;;;;;;7.82;4.28;;;;;;;;;;5046320;28;20037;-58
2023/10/30 01:04:47;;;;;;;8.20;5.22;;;;;;;;;;5048151;28;20394;-58
2023/10/30 01:07:13;;;;;;;9.88;5.00;;;;;;;;;;5047467;28;20040;-59
2023/10/30 01:09:39;;;;;;;9.07;4.50;;;;;;;;;;5045018;28;20033;-59
2023/10/30 01:12:05;;;;;;;9.48;4.55;;;;;;;;;;5046530;28;20057;-59
2023/10/30 01:14:31;;;;;;;6.82;4.45;;;;;;;;;;5045497;28;20036;-59
2023/10/30 01:16:57;;;;;;;7.70;4.82;;;;;;;;;;5045746;28;20044;-59
2023/10/30 01:19:24;;;;;;;6.82;3.92;;;;;;;;;;5041765;28;20045;-59
2023/10/30 01:21:51;;;;;;;7.53;4.20;;;;;;;;;;5046531;28;20032;-59
2023/10/30 01:24:17;;;;;;;7.28;4.25;;;;;;;;;;5040182;28;20533;-59
2023/10/30 01:26:43;;;;;;;7.65;4.10;;;;;;;;;;5046947;28;20497;-59
2023/10/30 01:29:10;;;;;;;7.72;3.83;;;;;;;;;;5043886;28;20044;-58
2023/10/30 01:31:36;;;;;;;7.28;4.18;;;;;;;;;;5048107;28;20032;-59
2023/10/30 01:34:03;;;;;;;6.15;3.58;;;;;;;;;;5045613;28;20037;-59
2023/10/30 01:36:30;;;;;;;5.72;3.80;;;;;;;;;;5047575;28;20288;-59
2023/10/30 01:38:58;;;;;;;6.35;3.60;;;;;;;;;;5043883;28;20047;-59
2023/10/30 01:41:24;;;;;;;6.05;3.72;;;;;;;;;;5043920;28;20055;-59
2023/10/30 01:43:50;;;;;;;6.70;3.47;;;;;;;;;;5046710;28;20525;-59
2023/10/30 01:46:16;;;;;;;5.05;3.03;;;;;;;;;;5047282;28;20056;-59
2023/10/30 01:48:46;;;;;;;6.25;3.00;;;;;;;;;;5044331;28;20063;-59
2023/10/30 01:51:13;;;;;;;19.50;7.00;;;;;;;;;;5045726;28;20421;-59
2023/10/30 01:53:40;;;;;;;8.15;3.92;;;;;;;;;;5047149;28;20265;-58
2023/10/30 01:56:06;;;;;;;8.20;4.15;;;;;;;;;;5046808;28;20037;-58
2023/10/30 01:58:33;;;;;;;19.77;6.05;;;;;;;;;;5045623;28;20052;-59
2023/10/30 02:00:59;;;;;;;31.67;9.35;;;;;;;;;;5045606;28;20048;-60
2023/10/30 02:03:26;;;;;;;17.02;6.53;;;;;;;;;;5066117;28;20049;-59
2023/10/30 02:05:53;;;;;;;9.32;4.55;;;;;;;;;;5042607;28;20040;-59
2023/10/30 02:08:20;;;;;;;13.73;5.10;;;;;;;;;;5042053;28;20056;-59
2023/10/30 02:10:47;;;;;;;9.52;4.68;;;;;;;;;;5045177;28;20041;-59
2023/10/30 02:13:13;;;;;;;10.00;4.38;;;;;;;;;;5040113;28;20033;-59
2023/10/30 02:15:39;;;;;;;10.15;4.28;;;;;;;;;;5047886;28;20037;-60
2023/10/30 02:18:05;;;;;;;6.15;3.45;;;;;;;;;;5045239;28;20057;-59
2023/10/30 02:20:32;;;;;;;6.30;3.28;;;;;;;;;;5044738;28;20044;-59
2023/10/30 02:22:58;;;;;;;5.57;3.00;;;;;;;;;;5046388;28;20433;-60
2023/10/30 02:25:24;;;;;;;3.92;3.00;;;;;;;;;;5038208;28;20045;-58
2023/10/30 02:27:52;;;;;;;5.25;2.80;;;;;;;;;;5042903;28;20033;-59
2023/10/30 02:30:18;;;;;;;4.95;2.80;;;;;;;;;;5046955;28;20183;-59
2023/10/30 02:32:46;;;;;;;4.05;2.75;;;;;;;;;;5047313;28;20045;-59
2023/10/30 02:35:16;;;;;;;4.60;2.80;;;;;;;;;;5060839;28;20056;-59
2023/10/30 02:37:44;;;;;;;3.90;2.85;;;;;;;;;;5045716;28;20269;-59
2023/10/30 02:40:10;;;;;;;5.25;2.50;;;;;;;;;;5045988;28;20037;-59
2023/10/30 02:42:37;;;;;;;3.58;2.75;;;;;;;;;;5046849;28;20029;-59
2023/10/30 02:45:05;;;;;;;4.70;2.83;;;;;;;;;;5046163;28;20045;-59
2023/10/30 02:47:32;;;;;;;3.28;2.72;;;;;;;;;;5045082;28;20070;-60
2023/10/30 02:50:01;;;;;;;5.10;2.70;;;;;;;;;;5046151;28;20041;-59
2023/10/30 02:52:30;;;;;;;5.85;3.05;;;;;;;;;;5045932;28;20032;-59
2023/10/30 02:54:56;;;;;;;4.05;3.20;;;;;;;;;;5038692;28;20045;-59
2023/10/30 02:57:22;;;;;;;6.10;4.05;;;;;;;;;;5045031;28;20045;-59
2023/10/30 02:59:48;;;;;;;4.85;3.15;;;;;;;;;;5042591;28;20044;-59
2023/10/30 03:02:14;;;;;;;5.40;3.08;;;;;;;;;;5045867;28;20052;-59
2023/10/30 03:04:40;;;;;;;4.35;2.80;;;;;;;;;;5045821;28;20053;-59
2023/10/30 03:07:06;;;;;;;7.15;2.63;;;;;;;;;;5049532;28;20037;-59
2023/10/30 03:09:35;;;;;;;4.53;2.55;;;;;;;;;;5047523;28;20049;-59
2023/10/30 03:12:04;;;;;;;6.45;3.25;;;;;;;;;;5046710;28;20037;-59
2023/10/30 03:14:30;;;;;;;4.22;2.80;;;;;;;;;;5046542;28;20044;-59
2023/10/30 03:16:59;;;;;;;6.00;3.42;;;;;;;;;;5047469;28;20056;-59
2023/10/30 03:19:25;;;;;;;4.68;3.35;;;;;;;;;;5047384;28;20090;-59
2023/10/30 03:21:51;;;;;;;6.53;3.38;;;;;;;;;;5048747;28;20037;-59
2023/10/30 03:24:17;;;;;;;5.70;3.67;;;;;;;;;;5047448;28;20051;-58
2023/10/30 03:26:43;;;;;;;5.35;3.55;;;;;;;;;;5050287;28;20052;-58
2023/10/30 03:29:09;;;;;;;6.25;3.85;;;;;;;;;;5042495;28;20052;-60
2023/10/30 03:31:35;;;;;;;7.70;3.70;;;;;;;;;;5050359;28;20049;-59
2023/10/30 03:34:01;;;;;;;6.28;3.72;;;;;;;;;;5046932;28;20513;-59
2023/10/30 03:36:29;;;;;;;7.80;3.55;;;;;;;;;;5046967;28;20478;-59
2023/10/30 03:38:55;;;;;;;6.50;4.18;;;;;;;;;;5048088;28;20413;-59
2023/10/30 03:41:21;;;;;;;6.35;3.83;;;;;;;;;;5047826;28;20061;-59
2023/10/30 03:43:47;;;;;;;6.18;3.88;;;;;;;;;;5048819;28;20558;-59
2023/10/30 03:46:13;;;;;;;8.55;4.40;;;;;;;;;;5049327;28;20044;-59
2023/10/30 03:48:42;;;;;;;6.38;4.13;;;;;;;;;;5047307;28;20049;-59
2023/10/30 03:51:08;;;;;;;7.80;4.30;;;;;;;;;;5046635;28;20056;-59
2023/10/30 03:53:34;;;;;;;7.88;4.50;;;;;;;;;;5046417;28;20059;-59
2023/10/30 03:56:05;;;;;;;7.75;4.78;;;;;;;;;;5049861;28;20417;-59
2023/10/30 03:58:32;;;;;;;8.32;4.60;;;;;;;;;;5048105;28;20044;-59
2023/10/30 04:01:07;;;;;;;7.68;4.97;;;;;;;;;;5047492;28;20053;-59
2023/10/30 04:03:33;;;;;;;10.88;5.65;;;;;;;;;;5044872;28;20489;-60
2023/10/30 04:06:01;;;;;;;10.18;5.45;;;;;;;;;;5048452;28;20056;-59
2023/10/30 04:08:27;;;;;;;8.98;5.47;;;;;;;;;;5043545;28;20033;-59
2023/10/30 04:10:53;;;;;;;10.27;5.57;;;;;;;;;;5043696;28;20025;-59
2023/10/30 04:13:19;;;;;;;12.15;6.13;;;;;;;;;;5045284;28;20029;-60
2023/10/30 04:15:46;;;;;;;15.18;6.55;;;;;;;;;;5041270;28;20040;-60
2023/10/30 04:18:12;;;;;;;13.05;5.80;;;;;;;;;;5045955;28;20056;-60
2023/10/30 04:20:38;;;;;;;14.90;7.78;;;;;;;;;;5049647;28;20040;-60
2023/10/30 04:23:04;;;;;;;12.52;6.60;;;;;;;;;;5043001;28;20048;-58
2023/10/30 04:25:30;;;;;;;15.20;7.53;;;;;;;;;;5043754;28;20041;-58
2023/10/30 04:27:56;;;;;;;16.27;7.80;;;;;;;;;;5047143;28;20036;-58
2023/10/30 04:30:22;;;;;;;20.90;8.73;;;;;;;;;;5048812;28;20045;-59
2023/10/30 04:32:48;;;;;;;23.08;9.45;;;;;;;;;;5042930;28;20053;-58
2023/10/30 04:35:14;;;;;;;22.58;10.30;;;;;;;;;;5047827;28;20056;-58
2023/10/30 04:37:40;;;;;;;24.05;11.68;;;;;;;;;;5048252;28;20048;-58
2023/10/30 04:40:07;;;;;;;25.42;10.23;;;;;;;;;;5043912;28;20031;-58
2023/10/30 04:42:33;;;;;;;23.33;10.95;;;;;;;;;;5047643;28;20060;-58
2023/10/30 04:44:59;;;;;;;28.48;11.57;;;;;;;;;;5049222;28;20029;-59
2023/10/30 04:47:25;;;;;;;25.13;10.73;;;;;;;;;;5047909;28;20040;-58
2023/10/30 04:49:51;;;;;;;31.08;13.40;;;;;;;;;;5039481;28;20045;-59
2023/10/30 04:52:17;;;;;;;32.65;12.02;;;;;;;;;;5046965;28;20029;-58
2023/10/30 04:54:43;;;;;;;31.95;13.30;;;;;;;;;;5043783;28;20039;-58
2023/10/30 04:57:09;;;;;;;34.03;14.18;;;;;;;;;;5040731;28;20045;-58
2023/10/30 04:59:35;;;;;;;42.63;15.70;;;;;;;;;;5047326;28;20044;-58
2023/10/30 05:02:02;;;;;;;40.20;15.40;;;;;;;;;;5048092;28;20049;-58
2023/10/30 05:04:28;;;;;;;38.38;14.48;;;;;;;;;;5045559;28;20490;-58
2023/10/30 05:06:54;;;;;;;40.65;15.02;;;;;;;;;;5047642;28;20516;-58
2023/10/30 05:09:20;;;;;;;35.50;13.20;;;;;;;;;;5046256;28;20378;-59
2023/10/30 05:11:46;;;;;;;44.78;16.10;;;;;;;;;;5047907;28;20048;-59
2023/10/30 05:14:13;;;;;;;47.75;15.65;;;;;;;;;;5041424;28;20524;-59
2023/10/30 05:16:39;;;;;;;42.60;15.57;;;;;;;;;;5047791;28;20478;-60
2023/10/30 05:19:06;;;;;;;45.15;15.60;;;;;;;;;;5045982;28;20033;-59
2023/10/30 05:21:32;;;;;;;40.58;13.77;;;;;;;;;;5047855;28;20402;-60
2023/10/30 05:23:58;;;;;;;45.42;15.52;;;;;;;;;;5047619;28;20044;-60
2023/10/30 05:26:24;;;;;;;46.85;17.92;;;;;;;;;;5044352;28;20045;-59
2023/10/30 05:28:50;;;;;;;45.97;17.20;;;;;;;;;;5042398;28;20510;-59
2023/10/30 05:31:16;;;;;;;39.17;15.57;;;;;;;;;;5047492;28;20037;-59
2023/10/30 05:33:43;;;;;;;45.22;16.08;;;;;;;;;;5043858;28;20029;-59
2023/10/30 05:36:09;;;;;;;40.00;15.43;;;;;;;;;;5047174;28;20045;-59
2023/10/30 05:38:36;;;;;;;38.15;14.43;;;;;;;;;;5041721;28;20433;-59
2023/10/30 05:41:03;;;;;;;38.03;15.57;;;;;;;;;;5044922;28;20402;-59
2023/10/30 05:43:29;;;;;;;46.83;16.80;;;;;;;;;;5046997;28;20056;-59
2023/10/30 05:45:56;;;;;;;36.38;16.10;;;;;;;;;;5043540;28;20043;-59
2023/10/30 05:48:22;;;;;;;36.88;16.38;;;;;;;;;;5044688;28;20417;-59
2023/10/30 05:50:48;;;;;;;31.20;14.32;;;;;;;;;;5046142;28;20040;-59
2023/10/30 05:53:14;;;;;;;33.35;14.98;;;;;;;;;;5043968;28;20044;-59
2023/10/30 05:55:41;;;;;;;30.75;14.90;;;;;;;;;;5048031;28;20048;-59
2023/10/30 05:58:08;;;;;;;29.13;13.60;;;;;;;;;;5042634;28;20029;-60
2023/10/30 06:00:34;;;;;;;26.90;13.27;;;;;;;;;;5047774;28;20045;-60
2023/10/30 06:03:00;;;;;;;29.02;12.80;;;;;;;;;;5047303;28;20394;-59
2023/10/30 06:05:26;;;;;;;23.88;12.10;;;;;;;;;;5044236;28;20427;-59
2023/10/30 06:07:53;;;;;;;21.35;10.82;;;;;;;;;;5045743;28;20048;-59
2023/10/30 06:10:23;;;;;;;21.02;10.85;;;;;;;;;;5046280;28;20446;-59
2023/10/30 06:12:50;;;;;;;20.40;9.57;;;;;;;;;;5044739;28;20045;-57
2023/10/30 06:15:16;;;;;;;18.15;9.73;;;;;;;;;;5045329;28;20103;-58
2023/10/30 06:17:42;;;;;;;19.45;10.18;;;;;;;;;;5046821;28;20037;-58
2023/10/30 06:20:09;;;;;;;15.02;9.25;;;;;;;;;;5046350;28;20029;-58
2023/10/30 06:22:35;;;;;;;16.23;9.15;;;;;;;;;;5046819;28;20041;-58
2023/10/30 06:25:01;;;;;;;12.55;7.72;;;;;;;;;;5047982;28;20044;-58
2023/10/30 06:27:28;;;;;;;13.63;8.07;;;;;;;;;;5045788;28;20045;-58
2023/10/30 06:29:54;;;;;;;12.52;6.95;;;;;;;;;;5046696;28;20032;-58
2023/10/30 06:32:20;;;;;;;11.50;6.47;;;;;;;;;;5046639;28;20072;-58
2023/10/30 06:34:46;;;;;;;13.38;7.30;;;;;;;;;;5047267;28;20049;-58
2023/10/30 06:37:12;;;;;;;11.55;6.82;;;;;;;;;;5046411;28;20037;-58
2023/10/30 06:39:39;;;;;;;11.02;6.35;;;;;;;;;;5049722;28;20041;-58
2023/10/30 06:42:05;;;;;;;11.63;6.50;;;;;;;;;;5049951;28;20070;-58
2023/10/30 06:44:31;;;;;;;12.35;6.70;;;;;;;;;;5050572;28;20395;-58
2023/10/30 06:46:58;;;;;;;9.00;6.00;;;;;;;;;;5049303;28;20041;-59
2023/10/30 06:49:25;;;;;;;8.85;6.22;;;;;;;;;;5048843;28;20051;-59
2023/10/30 06:51:51;;;;;;;9.23;6.20;;;;;;;;;;5050703;28;20041;-59
2023/10/30 06:54:17;;;;;;;8.75;5.80;;;;;;;;;;5048679;28;20045;-59
2023/10/30 06:56:43;;;;;;;7.15;5.05;;;;;;;;;;5047381;28;20032;-59
2023/10/30 06:59:12;;;;;;;8.75;5.50;;;;;;;;;;5048163;28;20048;-59
2023/10/30 07:01:43;;;;;;;9.00;5.63;;;;;;;;;;5050685;28;20033;-59
2023/10/30 07:04:13;;;;;;;7.85;5.22;;;;;;;;;;5049208;28;20044;-59
2023/10/30 07:06:43;;;;;;;7.57;5.60;;;;;;;;;;5050876;28;20025;-58
2023/10/30 07:09:10;;;;;;;7.78;5.45;;;;;;;;;;5048080;28;20041;-58
2023/10/30 07:11:37;;;;;;;7.63;5.32;;;;;;;;;;5050661;28;20044;-58
2023/10/30 07:14:04;;;;;;;7.78;4.97;;;;;;;;;;5047018;28;20045;-59
2023/10/30 07:16:30;;;;;;;6.82;4.95;;;;;;;;;;5049973;28;20053;-57
2023/10/30 07:18:57;;;;;;;6.50;4.82;;;;;;;;;;5048486;28;20044;-58
2023/10/30 07:21:24;;;;;;;6.85;5.07;;;;;;;;;;5049759;28;20045;-58
2023/10/30 07:23:50;;;;;;;6.63;4.10;;;;;;;;;;5049984;28;20600;-59
2023/10/30 07:26:17;;;;;;;6.07;4.57;;;;;;;;;;5049924;28;20075;-58
2023/10/30 07:28:44;;;;;;;7.80;4.93;;;;;;;;;;5048550;28;20565;-59
2023/10/30 07:31:10;;;;;;;6.55;4.35;;;;;;;;;;5049092;28;20666;-59
2023/10/30 07:33:37;;;;;;;6.18;4.35;;;;;;;;;;5045618;28;20033;-58
2023/10/30 07:36:03;;;;;;;8.48;4.22;;;;;;;;;;5050279;28;20036;-59
2023/10/30 07:38:30;;;;;;;4.30;3.35;;;;;;;;;;5045015;28;20062;-59
2023/10/30 07:40:56;;;;;;;5.40;3.85;;;;;;;;;;5050071;28;20049;-58
2023/10/30 07:43:22;;;;;;;4.75;3.40;;;;;;;;;;5047449;28;20049;-59
2023/10/30 07:45:49;;;;;;;3.75;3.10;;;;;;;;;;5049247;28;20032;-58
2023/10/30 07:48:15;;;;;;;4.35;3.33;;;;;;;;;;5044365;28;20410;-59
2023/10/30 07:50:42;;;;;;;4.30;3.60;;;;;;;;;;5048231;28;20040;-58
2023/10/30 07:53:09;;;;;;;4.13;2.85;;;;;;;;;;5042963;28;20047;-59
2023/10/30 07:55:37;;;;;;;3.20;2.90;;;;;;;;;;5044534;28;20414;-58
2023/10/30 07:58:04;;;;;;;3.92;2.60;;;;;;;;;;5044063;28;20493;-58
2023/10/30 08:00:31;;;;;;;3.50;2.67;;;;;;;;;;5048443;28;20033;-59
2023/10/30 08:02:57;;;;;;;2.80;2.30;;;;;;;;;;5049432;28;20037;-59
2023/10/30 08:05:23;;;;;;;2.95;2.30;;;;;;;;;;5044666;28;20029;-58
2023/10/30 08:07:49;;;;;;;2.83;2.05;;;;;;;;;;5047754;28;20053;-57
2023/10/30 08:10:15;;;;;;;3.55;2.40;;;;;;;;;;5048819;28;20056;-59
2023/10/30 08:12:41;;;;;;;3.53;1.90;;;;;;;;;;5049112;28;20056;-58
2023/10/30 08:15:08;;;;;;;2.88;2.15;;;;;;;;;;5046428;28;20033;-58
2023/10/30 08:17:34;;;;;;;4.55;2.03;;;;;;;;;;5045062;28;20546;-59
2023/10/30 08:20:00;;;;;;;5.55;2.10;;;;;;;;;;5047360;28;20053;-58
2023/10/30 08:22:26;;;;;;;2.05;1.85;;;;;;;;;;5047226;28;20045;-58
2023/10/30 08:24:52;;;;;;;2.97;1.90;;;;;;;;;;5048832;28;20544;-58
2023/10/30 08:27:18;;;;;;;2.63;1.73;;;;;;;;;;5043150;28;20442;-58
2023/10/30 08:29:44;;;;;;;2.58;2.03;;;;;;;;;;5047993;28;20041;-58
2023/10/30 08:32:10;;;;;;;3.17;1.92;;;;;;;;;;5047724;28;20067;-58
2023/10/30 08:34:36;;;;;;;2.78;1.98;;;;;;;;;;5044231;28;20029;-58
2023/10/30 08:37:02;;;;;;;1.85;1.65;;;;;;;;;;5047130;28;20076;-59
2023/10/30 08:39:29;;;;;;;3.75;2.00;;;;;;;;;;5046327;28;20033;-58
2023/10/30 08:41:55;;;;;;;1.88;1.50;;;;;;;;;;5044565;28;20503;-59
2023/10/30 08:44:21;;;;;;;1.95;1.75;;;;;;;;;;5048225;28;20064;-58
2023/10/30 08:46:47;;;;;;;2.83;1.70;;;;;;;;;;5045035;28;20051;-59
2023/10/30 08:49:13;;;;;;;2.35;1.70;;;;;;;;;;5046158;28;20033;-58
2023/10/30 08:51:41;;;;;;;2.17;1.80;;;;;;;;;;5039471;28;20519;-58
2023/10/30 08:54:07;;;;;;;3.72;1.80;;;;;;;;;;5039969;28;20045;-58
2023/10/30 08:56:34;;;;;;;1.92;1.73;;;;;;;;;;5045293;28;20560;-58
2023/10/30 08:59:00;;;;;;;3.53;1.75;;;;;;;;;;5042512;28;20064;-58
2023/10/30 09:01:28;;;;;;;1.90;1.50;;;;;;;;;;5043700;28;20033;-58
2023/10/30 09:03:55;;;;;;;2.63;1.77;;;;;;;;;;5047891;28;20044;-58
2023/10/30 09:06:22;;;;;;;1.95;1.40;;;;;;;;;;5047735;28;20029;-58
2023/10/30 09:08:48;;;;;;;5.40;1.55;;;;;;;;;;5046499;28;20037;-58
2023/10/30 09:11:14;;;;;;;3.28;1.65;;;;;;;;;;5047731;28;20044;-58
2023/10/30 09:13:40;;;;;;;2.17;1.30;;;;;;;;;;5044674;28;20425;-58
2023/10/30 09:16:06;;;;;;;1.58;1.02;;;;;;;;;;5048749;28;20051;-58
2023/10/30 09:18:32;;;;;;;5.78;1.20;;;;;;;;;;5046364;28;20048;-59
2023/10/30 09:20:58;;;;;;;2.38;1.17;;;;;;;;;;5048280;28;20036;-58
2023/10/30 09:23:26;;;;;;;2.17;1.02;;;;;;;;;;5043554;28;20517;-59
2023/10/30 09:25:52;;;;;;;1.40;1.30;;;;;;;;;;5047957;28;20049;-58
2023/10/30 09:28:18;;;;;;;1.85;1.30;;;;;;;;;;5045520;28;20033;-58
2023/10/30 09:30:44;;;;;;;1.33;1.23;;;;;;;;;;5048372;28;20033;-58
2023/10/30 09:33:10;;;;;;;2.00;1.33;;;;;;;;;;5047443;28;20050;-58
2023/10/30 09:35:38;;;;;;;1.70;1.15;;;;;;;;;;5047681;28;20422;-58
2023/10/30 09:38:05;;;;;;;1.90;1.48;;;;;;;;;;5045106;28;20541;-58
2023/10/30 09:40:31;;;;;;;2.10;1.50;;;;;;;;;;5044035;28;20036;-58
2023/10/30 09:42:59;;;;;;;3.17;1.50;;;;;;;;;;5044094;28;20053;-58
2023/10/30 09:45:26;;;;;;;1.65;1.20;;;;;;;;;;5044947;28;20036;-58
2023/10/30 09:47:54;;;;;;;1.33;1.23;;;;;;;;;;5043940;28;20465;-58
2023/10/30 09:50:22;;;;;;;1.60;1.15;;;;;;;;;;5045097;28;20032;-59
2023/10/30 09:52:50;;;;;;;1.88;1.20;;;;;;;;;;5043282;28;20052;-58
2023/10/30 09:55:22;;;;;;;1.58;0.93;;;;;;;;;;5045180;28;20430;-58
2023/10/30 09:57:53;;;;;;;1.48;0.93;;;;;;;;;;5042900;28;20028;-58
2023/10/30 10:00:20;;;;;;;1.42;1.08;;;;;;;;;;5042407;28;20045;-58
2023/10/30 10:02:47;;;;;;;1.10;1.00;;;;;;;;;;5044522;28;20048;-58
2023/10/30 10:05:15;;;;;;;3.30;1.17;;;;;;;;;;5044289;28;20047;-59
2023/10/30 10:07:41;;;;;;;1.83;1.10;;;;;;;;;;5045492;28;20029;-59
2023/10/30 10:10:14;;;;;;;1.30;0.90;;;;;;;;;;5043152;28;20422;-59
2023/10/30 10:12:40;;;;;;;2.20;1.08;;;;;;;;;;5048589;28;20045;-59
2023/10/30 10:15:07;;;;;;;2.85;1.00;;;;;;;;;;5050913;28;20041;-58
2023/10/30 10:17:44;;;;;;;2.55;1.00;;;;;;;;;;5050232;28;20045;-59
2023/10/30 10:20:11;;;;;;;1.70;0.90;;;;;;;;;;5050908;28;20045;-59
2023/10/30 10:22:39;;;;;;;1.75;1.00;;;;;;;;;;5050332;28;20505;-59
2023/10/30 10:25:08;;;;;;;1.77;1.00;;;;;;;;;;5051566;28;20044;-58
2023/10/30 10:27:34;;;;;;;;;;;;;;;;;;5049970;28;20057;-58
2023/10/30 10:30:00;;;;;;;0.95;0.93;;;;;;;;;;5050814;28;19913;-58
2023/10/30 10:32:28;;;;;;;2.30;1.08;;;;;;;;;;5047696;28;20048;-58
2023/10/30 10:35:05;;;;;;;1.10;1.00;;;;;;;;;;5051375;28;20041;-59
2023/10/30 10:37:33;;;;;;;2.38;1.00;;;;;;;;;;5049911;28;20422;-58
2023/10/30 10:40:01;;;;;;;1.33;1.13;;;;;;;;;;5050226;28;20052;-59
2023/10/30 10:42:30;;;;;;;1.38;1.20;;;;;;;;;;5050194;28;20032;-58
2023/10/30 10:44:58;;;;;;;2.60;1.08;;;;;;;;;;5050920;28;20493;-58
2023/10/30 10:47:24;;;;;;;2.25;1.95;;;;;;;;;;5050428;28;20029;-58
2023/10/30 10:49:51;;;;;;;2.38;1.33;;;;;;;;;;5049173;28;20049;-59
2023/10/30 10:52:19;;;;;;;3.33;1.40;;;;;;;;;;5046186;28;20044;-58
2023/10/30 10:55:08;;;;;;;1.88;1.27;;;;;;;;;;5050291;28;20033;-59
2023/10/30 10:57:57;;;;;;;2.38;1.35;;;;;;;;;;5045907;28;20045;-58
2023/10/30 11:00:28;;;;;;;1.80;1.15;;;;;;;;;;5046873;28;20037;-58
2023/10/30 11:02:57;;;;;;;2.25;1.20;;;;;;;;;;5047233;28;20037;-58
2023/10/30 11:05:29;;;;;;;2.72;1.40;;;;;;;;;;5047122;28;20037;-58
2023/10/30 11:08:05;;;;;;;2.53;1.20;;;;;;;;;;5045135;28;20045;-58
2023/10/30 11:10:43;;;;;;;1.40;1.30;;;;;;;;;;5046601;28;20040;-58
2023/10/30 11:13:31;;;;;;;3.60;1.38;;;;;;;;;;5043496;28;20433;-58
2023/10/30 11:16:04;;;;;;;2.00;1.25;;;;;;;;;;5044243;28;20064;-58
2023/10/30 11:18:33;;;;;;;1.67;1.40;;;;;;;;;;5046186;28;20056;-58
2023/10/30 11:21:13;;;;;;;1.85;1.50;;;;;;;;;;5048202;28;20572;-59
2023/10/30 11:23:45;;;;;;;2.08;1.33;;;;;;;;;;5041293;28;20043;-59
2023/10/30 11:26:36;;;;;;;3.35;1.27;;;;;;;;;;5048821;28;20033;-58
2023/10/30 11:29:22;;;;;;;2.92;1.92;;;;;;;;;;5047930;28;20029;-58
2023/10/30 11:31:59;;;;;;;2.03;1.15;;;;;;;;;;5046330;28;20033;-58
2023/10/30 11:34:33;;;;;;;2.13;1.23;;;;;;;;;;5047325;28;20029;-58
2023/10/30 11:37:11;;;;;;;2.20;1.40;;;;;;;;;;5048685;28;20518;-59
2023/10/30 11:39:39;;;;;;;1.77;1.40;;;;;;;;;;5047289;28;20060;-58
2023/10/30 11:42:26;;;;;;;2.90;1.23;;;;;;;;;;5049308;28;20478;-59
2023/10/30 11:45:13;;;;;;;4.28;1.40;;;;;;;;;;5045518;28;20044;-58
2023/10/30 11:47:39;;;;;;;1.73;1.30;;;;;;;;;;5044388;28;20056;-58
2023/10/30 11:50:06;;;;;;;2.15;1.30;;;;;;;;;;5049229;28;20029;-58
2023/10/30 11:52:32;;;;;;;2.83;1.50;;;;;;;;;;5048567;28;20543;-59
2023/10/30 11:55:04;;;;;;;3.03;1.48;;;;;;;;;;5039521;28;20482;-59
2023/10/30 11:57:31;;;;;;;1.80;1.30;;;;;;;;;;5045081;28;20056;-59
2023/10/30 11:59:57;;;;;;;1.98;1.40;;;;;;;;;;5041438;28;20033;-58
2023/10/30 12:02:23;;;;;;;4.00;1.50;;;;;;;;;;5041866;28;20037;-58
2023/10/30 12:04:49;;;;;;;1.50;1.30;;;;;;;;;;5048560;28;20052;-59
2023/10/30 12:07:15;;;;;;;2.30;1.63;;;;;;;;;;5045237;28;20044;-60
2023/10/30 12:09:41;;;;;;;1.92;1.30;;;;;;;;;;5044227;28;20028;-58
2023/10/30 12:12:08;;;;;;;6.25;1.55;;;;;;;;;;5046313;28;20045;-60
2023/10/30 12:14:34;;;;;;;2.28;1.40;;;;;;;;;;5044054;28;20616;-58
2023/10/30 12:17:02;;;;;;;2.25;1.30;;;;;;;;;;5047282;28;20045;-58
2023/10/30 12:19:29;;;;;;;3.20;1.55;;;;;;;;;;5047741;28;20044;-58
2023/10/30 12:21:55;;;;;;;2.45;1.50;;;;;;;;;;5049444;28;20044;-58
2023/10/30 12:24:24;;;;;;;1.73;1.30;;;;;;;;;;5048393;28;20041;-58
2023/10/30 12:26:51;;;;;;;4.35;2.10;;;;;;;;;;5048411;28;20045;-58
2023/10/30 12:29:24;;;;;;;7.05;3.95;;;;;;;;;;5044645;28;20056;-59
2023/10/30 12:32:01;;;;;;;2.75;1.83;;;;;;;;;;5046573;28;20450;-59
2023/10/30 12:34:27;;;;;;;2.88;1.50;;;;;;;;;;5042122;28;20045;-59
2023/10/30 12:36:53;;;;;;;1.83;1.27;;;;;;;;;;5045203;28;20048;-59
2023/10/30 12:39:21;;;;;;;2.75;1.60;;;;;;;;;;5045700;28;20029;-58
2023/10/30 12:41:55;;;;;;;2.58;1.35;;;;;;;;;;5049143;28;20064;-58
2023/10/30 12:44:27;;;;;;;2.65;1.50;;;;;;;;;;5045661;28;20044;-58
2023/10/30 12:46:53;;;;;;;2.10;1.30;;;;;;;;;;5049291;28;20510;-59
2023/10/30 12:49:19;;;;;;;2.47;1.50;;;;;;;;;;5047255;28;20386;-59
2023/10/30 12:51:46;;;;;;;4.80;1.80;;;;;;;;;;5049394;28;20401;-58
2023/10/30 12:54:12;;;;;;;3.58;2.00;;;;;;;;;;5048553;28;20494;-59
2023/10/30 12:56:38;;;;;;;3.80;1.70;;;;;;;;;;5046901;28;20040;-58
2023/10/30 12:59:04;;;;;;;6.75;1.70;;;;;;;;;;5043595;28;20056;-58
2023/10/30 13:01:31;;;;;;;1.50;1.40;;;;;;;;;;5047104;28;20040;-60
2023/10/30 13:03:57;;;;;;;4.85;2.08;;;;;;;;;;5045964;28;20250;-59
2023/10/30 13:06:23;;;;;;;2.92;1.70;;;;;;;;;;5044221;28;20029;-60
2023/10/30 13:08:49;;;;;;;5.13;2.13;;;;;;;;;;5039853;28;20053;-59
2023/10/30 13:11:15;;;;;;;5.10;2.40;;;;;;;;;;5044369;28;20453;-59
2023/10/30 13:13:41;;;;;;;5.57;2.42;;;;;;;;;;5046764;28;20049;-59
2023/10/30 13:16:08;;;;;;;6.28;2.53;;;;;;;;;;5040694;28;20052;-60
2023/10/30 13:18:35;;;;;;;3.70;1.70;;;;;;;;;;5045209;28;20061;-58
2023/10/30 13:21:03;;;;;;;3.70;2.10;;;;;;;;;;5045866;28;20044;-58
2023/10/30 13:23:31;;;;;;;4.95;2.40;;;;;;;;;;5043588;28;20041;-59
2023/10/30 13:25:57;;;;;;;4.72;2.03;;;;;;;;;;5046953;28;20037;-59
2023/10/30 13:28:23;;;;;;;3.45;1.95;;;;;;;;;;5044861;28;20033;-59
2023/10/30 13:30:49;;;;;;;3.45;2.00;;;;;;;;;;5040901;28;20047;-60
2023/10/30 13:33:15;;;;;;;3.10;2.00;;;;;;;;;;5046698;28;20057;-59
2023/10/30 13:35:42;;;;;;;3.25;1.80;;;;;;;;;;5044979;28;20074;-59
2023/10/30 13:38:09;;;;;;;3.53;2.03;;;;;;;;;;5042361;28;20041;-58
2023/10/30 13:40:35;;;;;;;2.70;1.95;;;;;;;;;;5046350;28;20651;-59
2023/10/30 13:43:02;;;;;;;3.75;2.72;;;;;;;;;;5046983;28;20048;-59
2023/10/30 13:45:29;;;;;;;7.38;3.70;;;;;;;;;;5047285;28;20040;-59
2023/10/30 13:47:55;;;;;;;6.05;2.97;;;;;;;;;;5044360;28;20544;-59
2023/10/30 13:50:21;;;;;;;7.38;3.33;;;;;;;;;;5044792;28;20036;-59
2023/10/30 13:52:47;;;;;;;5.75;3.17;;;;;;;;;;5044897;28;20115;-59
2023/10/30 13:55:13;;;;;;;8.00;3.50;;;;;;;;;;5044575;28;20040;-58
2023/10/30 13:57:39;;;;;;;4.28;2.85;;;;;;;;;;5041872;28;20029;-58
2023/10/30 14:00:09;;;;;;;5.07;2.70;;;;;;;;;;5043115;28;20041;-58
2023/10/30 14:02:35;;;;;;;;;;;;;;;;;;5040063;28;20033;-58
2023/10/30 14:05:03;;;;;;;5.47;2.92;;;;;;;;;;5044425;28;19912;-59
2023/10/30 14:07:29;;;;;;;9.80;4.07;;;;;;;;;;5045718;28;20040;-58
2023/10/30 14:09:55;;;;;;;10.45;4.88;;;;;;;;;;5045019;28;20048;-58
2023/10/30 14:12:21;;;;;;;8.13;3.85;;;;;;;;;;5042665;28;20052;-58
2023/10/30 14:14:47;;;;;;;10.88;2.78;;;;;;;;;;5042936;28;20564;-58
2023/10/30 14:17:14;;;;;;;6.15;3.60;;;;;;;;;;5043108;28;20030;-59
2023/10/30 14:19:40;;;;;;;6.90;3.20;;;;;;;;;;5044497;28;20445;-59
2023/10/30 14:22:07;;;;;;;7.03;3.45;;;;;;;;;;5047374;28;20033;-58
2023/10/30 14:24:33;;;;;;;9.65;3.80;;;;;;;;;;5044646;28;20049;-58
2023/10/30 14:26:59;;;;;;;7.28;3.47;;;;;;;;;;5046935;28;20045;-58
2023/10/30 14:29:25;;;;;;;7.55;4.40;;;;;;;;;;5039878;28;20049;-58
2023/10/30 14:31:51;;;;;;;5.38;3.47;;;;;;;;;;5047470;28;20032;-58
2023/10/30 14:34:17;;;;;;;11.55;5.03;;;;;;;;;;5046385;28;20044;-59
2023/10/30 14:36:43;;;;;;;10.90;4.28;;;;;;;;;;5046926;28;20029;-59
2023/10/30 14:39:09;;;;;;;13.23;5.60;;;;;;;;;;5045565;28;20041;-58